Time;durP1;ratioP1;P1;durP2;ratioP2;P2;SDS_P1;SDS_P2;PMS_P1;PMS_P2;Temp;Humidity;BMP_temperature;BMP_pressure;BME280_temperature;BME280_humidity;BME280_pressure;Samples;Min_cycle;Max_cycle;Signal;HPM_P1;HPM_P2
2023/09/17 00:02:21;;;;;;;8.80;5.13;;;;;;;23.19;64.05;101060.88;4945732;29;20055;-82
2023/09/17 00:05:15;;;;;;;12.48;5.63;;;;;;;23.14;64.40;101064.03;4948430;29;20046;-82
2023/09/17 00:08:07;;;;;;;9.85;6.38;;;;;;;23.16;64.51;101060.88;4946746;29;20051;-82
2023/09/17 00:11:02;;;;;;;10.07;6.47;;;;;;;23.07;64.98;101057.63;4944865;29;20062;-82
2023/09/17 00:13:54;;;;;;;11.02;6.90;;;;;;;22.93;65.22;101050.88;4948448;29;20059;-82
2023/09/17 00:16:48;;;;;;;12.10;6.13;;;;;;;22.88;65.74;101047.69;4943843;29;20047;-81
2023/09/17 00:19:43;;;;;;;8.38;6.18;;;;;;;22.91;65.84;101056.00;4949497;29;20043;-82
2023/09/17 00:22:38;;;;;;;8.73;5.93;;;;;;;22.70;66.32;101055.91;4947093;29;20058;-82
2023/09/17 00:25:30;;;;;;;8.80;6.25;;;;;;;22.60;66.86;101054.66;4943781;29;20073;-80
2023/09/17 00:28:22;;;;;;;7.00;5.88;;;;;;;22.67;66.54;101058.66;4947807;29;20055;-81
2023/09/17 00:31:18;;;;;;;8.95;5.88;;;;;;;22.68;66.66;101047.19;4944532;29;20436;-82
2023/09/17 00:34:10;;;;;;;7.63;5.70;;;;;;;22.58;67.31;101048.72;4949363;29;20054;-82
2023/09/17 00:37:04;;;;;;;7.78;5.55;;;;;;;22.69;66.55;101051.53;4947290;29;20410;-82
2023/09/17 00:39:59;;;;;;;6.63;5.53;;;;;;;22.75;66.53;101040.91;4957837;28;20054;-80
2023/09/17 00:42:53;;;;;;;6.63;5.40;;;;;;;22.77;66.57;101039.31;4947852;29;20071;-81
2023/09/17 00:45:45;;;;;;;7.35;5.85;;;;;;;22.78;66.34;101043.69;4945864;29;20058;-82
2023/09/17 00:48:40;;;;;;;10.15;7.32;;;;;;;22.75;66.75;101041.69;4956685;28;20046;-81
2023/09/17 00:51:35;;;;;;;8.45;6.05;;;;;;;22.71;67.18;101040.88;4944167;29;20043;-82
2023/09/17 00:54:30;;;;;;;9.35;7.10;;;;;;;22.67;67.31;101040.03;4938922;29;20054;-81
2023/09/17 00:57:25;;;;;;;12.30;7.00;;;;;;;22.70;67.14;101036.50;4941684;29;20409;-82
2023/09/17 01:00:21;;;;;;;7.28;5.43;;;;;;;22.60;67.88;101040.03;4943775;29;20055;-82
2023/09/17 01:03:13;;;;;;;6.78;5.53;;;;;;;22.63;67.59;101035.66;4940701;29;20055;-82
2023/09/17 01:06:08;;;;;;;8.95;6.38;;;;;;;22.56;68.14;101036.41;4939749;29;20046;-82
2023/09/17 01:09:00;;;;;;;11.80;7.32;;;;;;;22.65;67.70;101030.53;4954184;28;20055;-82
2023/09/17 01:11:55;;;;;;;11.05;6.13;;;;;;;22.52;68.07;101027.28;4940440;29;20044;-82
2023/09/17 01:14:49;;;;;;;9.80;6.50;;;;;;;22.73;67.34;101027.41;4939482;29;20051;-81
2023/09/17 01:17:44;;;;;;;11.23;7.35;;;;;;;22.48;68.34;101032.03;4939535;29;20043;-81
2023/09/17 01:21:09;;;;;;;9.43;6.13;;;;;;;22.43;68.59;101029.63;4942492;29;20416;-82
2023/09/17 01:24:21;;;;;;;6.55;5.75;;;;;;;22.57;68.17;101027.72;4940294;29;20827;-81
2023/09/17 01:27:17;;;;;;;9.40;5.90;;;;;;;22.48;68.53;101032.03;4941658;29;20055;-82
2023/09/17 01:30:14;;;;;;;12.02;5.80;;;;;;;22.45;68.86;101027.28;4953924;28;20046;-82
2023/09/17 01:33:06;;;;;;;8.50;6.93;;;;;;;22.53;68.46;101037.19;4957131;28;20051;-81
2023/09/17 01:36:08;;;;;;;9.68;6.78;;;;;;;22.63;68.78;101028.13;4941767;29;20047;-82
2023/09/17 01:39:07;;;;;;;8.13;5.97;;;;;;;22.69;68.62;101020.25;4958694;28;20051;-81
2023/09/17 01:41:58;;;;;;;8.82;5.70;;;;;;;22.69;68.75;101026.59;4955886;28;20050;-80
2023/09/17 01:44:53;;;;;;;10.13;5.65;;;;;;;22.67;68.59;101014.28;4940083;29;20054;-80
2023/09/17 01:47:49;;;;;;;6.65;5.05;;;;;;;22.68;68.53;101013.91;4943954;29;20508;-81
2023/09/17 01:50:42;;;;;;;9.15;6.82;;;;;;;22.62;68.98;101023.78;4953661;28;20051;-81
2023/09/17 01:53:37;;;;;;;11.40;6.38;;;;;;;22.55;69.29;101020.97;4958217;28;20556;-81
2023/09/17 01:56:32;;;;;;;10.27;6.35;;;;;;;22.60;69.16;101023.38;4953996;28;20055;-81
2023/09/17 01:59:26;;;;;;;12.18;5.55;;;;;;;22.64;68.71;101018.66;4952803;28;20039;-81
2023/09/17 02:02:21;;;;;;;14.10;5.78;;;;;;;22.69;68.33;101025.78;4956261;28;20066;-81
2023/09/17 02:05:16;;;;;;;15.95;6.32;;;;;;;22.68;68.75;101018.66;4938831;29;20044;-82
2023/09/17 02:08:10;;;;;;;10.18;5.80;;;;;;;22.71;68.22;101024.22;4939553;29;20058;-80
2023/09/17 02:10:57;;;;;;;6.50;5.50;;;;;;;22.67;68.80;101017.84;4954737;28;20050;-82
2023/09/17 02:13:53;;;;;;;11.23;6.55;;;;;;;22.71;68.27;101023.44;4952902;28;20516;-81
2023/09/17 02:16:47;;;;;;;9.80;6.47;;;;;;;22.60;68.53;101017.84;4938207;29;20051;-82
2023/09/17 02:19:42;;;;;;;13.50;6.25;;;;;;;22.69;68.55;101011.94;4954123;28;20050;-82
2023/09/17 02:22:36;;;;;;;16.05;7.03;;;;;;;22.66;68.62;101009.91;4939803;29;20051;-81
2023/09/17 02:25:32;;;;;;;11.52;6.78;;;;;;;22.67;68.34;101012.31;4942632;29;20128;-82
2023/09/17 02:28:22;;;;;;;9.23;6.28;;;;;;;22.75;68.32;101016.75;4939586;29;20051;-82
2023/09/17 02:31:17;;;;;;;8.98;6.90;;;;;;;22.78;68.47;101013.19;4943822;29;20047;-82
2023/09/17 02:34:09;;;;;;;17.50;6.60;;;;;;;22.67;68.64;101012.31;4941590;29;20050;-82
2023/09/17 02:37:03;;;;;;;9.25;6.72;;;;;;;22.63;69.10;101010.72;4940380;29;20043;-82
2023/09/17 02:39:58;;;;;;;10.40;6.97;;;;;;;22.62;68.68;101009.91;4942560;29;20050;-83
2023/09/17 02:42:50;;;;;;;12.32;5.85;;;;;;;22.46;70.21;101015.78;4940232;29;20048;-82
2023/09/17 02:45:44;;;;;;;6.53;5.47;;;;;;;22.57;69.39;101010.28;4942331;29;20047;-82
2023/09/17 02:48:39;;;;;;;11.20;5.70;;;;;;;22.41;69.92;101010.59;4943052;29;20050;-82
2023/09/17 02:51:34;;;;;;;9.63;6.35;;;;;;;22.14;70.92;101010.09;4939483;29;20051;-80
2023/09/17 02:54:27;;;;;;;9.73;6.20;;;;;;;22.11;71.26;101010.84;4942042;29;20051;-79
2023/09/17 02:57:22;;;;;;;8.38;5.50;;;;;;;22.24;70.97;101016.06;4940544;29;20047;-81
2023/09/17 03:00:18;;;;;;;9.02;5.78;;;;;;;22.29;70.33;101010.16;4940583;29;20059;-81
2023/09/17 03:03:13;;;;;;;7.88;6.22;;;;;;;22.07;71.39;101018.34;4928497;29;20120;-79
2023/09/17 03:06:08;;;;;;;15.15;6.97;;;;;;;22.12;70.93;101011.63;4939145;29;20055;-81
2023/09/17 03:09:01;;;;;;;9.18;5.45;;;;;;;22.02;71.29;101012.34;4942469;29;20035;-81
2023/09/17 03:11:54;;;;;;;7.78;5.63;;;;;;;22.09;71.02;101007.69;4940000;29;20046;-80
2023/09/17 03:14:50;;;;;;;8.98;6.32;;;;;;;22.20;70.40;101010.47;4943748;29;20063;-82
2023/09/17 03:17:44;;;;;;;9.38;5.80;;;;;;;22.30;70.01;101011.75;4939318;29;20050;-82
2023/09/17 03:20:37;;;;;;;10.05;5.47;;;;;;;22.13;70.32;101011.25;4940033;29;20046;-81
2023/09/17 03:23:33;;;;;;;8.60;6.63;;;;;;;22.03;70.72;101011.19;4943306;29;20051;-81
2023/09/17 03:26:28;;;;;;;7.53;5.45;;;;;;;22.10;70.71;101012.00;4938911;29;20420;-80
2023/09/17 03:29:22;;;;;;;11.77;5.47;;;;;;;22.06;70.54;101000.13;4930087;29;20067;-82
2023/09/17 03:32:17;;;;;;;11.00;5.28;;;;;;;22.14;70.32;100992.66;4941690;29;20047;-82
2023/09/17 03:35:11;;;;;;;10.38;5.60;;;;;;;22.06;69.81;100996.56;4939284;29;20044;-82
2023/09/17 03:38:06;;;;;;;7.75;5.55;;;;;;;22.14;69.82;100989.88;4942423;29;20401;-82
2023/09/17 03:40:59;;;;;;;12.82;6.35;;;;;;;22.01;70.71;100989.41;4938650;29;20054;-82
2023/09/17 03:43:54;;;;;;;11.70;6.15;;;;;;;21.75;71.46;100990.38;4942618;29;20047;-81
2023/09/17 03:46:48;;;;;;;9.35;6.35;;;;;;;21.97;71.17;100996.91;4938536;29;20508;-82
2023/09/17 03:49:45;;;;;;;7.00;5.32;;;;;;;22.08;70.41;100997.78;4939941;29;20054;-83
2023/09/17 03:52:42;;;;;;;6.97;4.80;;;;;;;22.41;69.52;100991.22;4940003;29;20047;-81
2023/09/17 03:55:34;;;;;;;33.40;9.93;;;;;;;22.52;67.80;100991.25;4941385;29;20046;-83
2023/09/17 03:58:26;;;;;;;216.77;41.65;;;;;;;22.68;68.13;100997.28;4945752;29;20046;-82
2023/09/17 04:01:21;;;;;;;54.25;15.80;;;;;;;22.93;66.87;100998.16;4941121;29;20039;-80
2023/09/17 04:04:16;;;;;;;16.98;6.65;;;;;;;22.93;66.62;100994.59;4938826;29;20047;-79
2023/09/17 04:07:10;;;;;;;10.75;5.25;;;;;;;23.02;65.71;101001.34;4938146;29;20039;-79
2023/09/17 04:10:05;;;;;;;10.30;4.65;;;;;;;23.11;65.05;101002.97;4938551;29;20047;-80
2023/09/17 04:13:00;;;;;;;12.13;4.82;;;;;;;23.12;65.15;101013.66;4938137;29;20050;-79
2023/09/17 04:15:55;;;;;;;8.05;5.25;;;;;;;22.97;65.14;101017.59;4939774;29;20527;-81
2023/09/17 04:18:47;;;;;;;9.27;5.78;;;;;;;22.83;66.31;101015.56;4937604;29;20050;-80
2023/09/17 04:21:42;;;;;;;6.93;4.80;;;;;;;23.00;65.52;101014.03;4941196;29;20054;-84
2023/09/17 04:24:38;;;;;;;14.65;5.90;;;;;;;22.95;65.44;101012.47;4939991;29;20335;-79
2023/09/17 04:27:32;;;;;;;24.55;10.10;;;;;;;22.86;65.12;101011.22;4939980;29;20099;-80
2023/09/17 04:30:27;;;;;;;25.75;9.38;;;;;;;22.90;65.69;101026.69;4942365;29;20493;-81
2023/09/17 04:33:19;;;;;;;14.77;7.22;;;;;;;22.95;65.80;101023.56;4944113;29;20050;-81
2023/09/17 04:36:14;;;;;;;15.85;5.93;;;;;;;23.07;65.25;101024.34;4942761;29;20043;-80
2023/09/17 04:39:09;;;;;;;9.30;5.88;;;;;;;23.13;64.96;101028.34;4952804;28;20040;-81
2023/09/17 04:42:03;;;;;;;6.30;4.57;;;;;;;23.10;65.03;101029.13;4937307;29;20421;-81
2023/09/17 04:44:58;;;;;;;9.13;5.50;;;;;;;23.11;64.72;101028.72;4943362;29;20047;-81
2023/09/17 04:47:53;;;;;;;11.82;5.63;;;;;;;23.12;64.52;101027.53;4940110;29;20059;-80
2023/09/17 04:50:47;;;;;;;8.05;5.10;;;;;;;23.03;64.39;101029.91;4945877;29;20050;-81
2023/09/17 04:53:40;;;;;;;9.50;5.30;;;;;;;23.02;64.42;101028.31;4935346;29;20188;-80
2023/09/17 04:56:35;;;;;;;5.85;4.88;;;;;;;23.09;64.13;101039.44;4931835;29;20432;-79
2023/09/17 04:59:30;;;;;;;7.90;5.00;;;;;;;23.14;64.01;101043.81;4938256;29;20071;-79
2023/09/17 05:02:24;;;;;;;8.32;4.88;;;;;;;23.15;63.87;101053.72;4933202;29;20047;-81
2023/09/17 05:05:19;;;;;;;7.93;5.07;;;;;;;23.15;63.80;101031.53;4939787;29;20054;-80
2023/09/17 05:08:11;;;;;;;11.68;5.63;;;;;;;23.20;63.80;101039.47;4938643;29;20047;-81
2023/09/17 05:11:06;;;;;;;11.50;5.43;;;;;;;23.22;63.69;101050.94;4934655;29;20047;-81
2023/09/17 05:14:00;;;;;;;8.75;5.90;;;;;;;23.20;63.62;101048.59;4938730;29;20066;-82
2023/09/17 05:16:55;;;;;;;13.48;6.65;;;;;;;23.19;63.71;101044.22;4939719;28;20051;-80
2023/09/17 05:19:49;;;;;;;9.43;5.35;;;;;;;23.17;63.82;101057.66;4936419;29;20051;-81
2023/09/17 05:22:44;;;;;;;10.90;6.32;;;;;;;23.19;63.78;101065.63;4942216;29;20051;-80
2023/09/17 05:25:40;;;;;;;12.00;5.95;;;;;;;23.19;63.71;101073.94;4939169;29;20067;-81
2023/09/17 05:28:29;;;;;;;;;;;;;;;23.21;63.61;101079.91;4944687;29;20528;-80
2023/09/17 05:31:18;;;;;;;;;;;;;;;23.22;63.61;101073.94;4944375;29;19915;-80
2023/09/17 05:34:12;;;;;;;10.30;6.93;;;;;;;23.16;63.75;101081.06;4938454;29;20424;-80
2023/09/17 05:37:07;;;;;;;12.48;6.20;;;;;;;23.20;63.70;101081.88;4942624;29;20046;-80
2023/09/17 05:39:59;;;;;;;16.67;7.15;;;;;;;23.15;64.32;101089.78;4940353;29;20047;-79
2023/09/17 05:42:52;;;;;;;11.48;6.55;;;;;;;22.99;64.93;101087.34;4943547;29;20051;-81
2023/09/17 05:45:44;;;;;;;11.40;5.15;;;;;;;22.92;65.58;101098.41;4941260;29;20054;-81
2023/09/17 05:48:39;;;;;;;12.30;5.97;;;;;;;22.87;65.79;101096.81;4939151;29;20545;-81
2023/09/17 05:51:33;;;;;;;11.55;6.47;;;;;;;23.00;65.04;101095.28;4939956;29;20322;-80
2023/09/17 05:54:28;;;;;;;14.15;8.35;;;;;;;22.98;65.45;101105.19;4940637;29;20413;-80
2023/09/17 05:57:23;;;;;;;11.98;6.00;;;;;;;23.08;65.01;101112.75;4942359;29;20497;-80
2023/09/17 06:00:19;;;;;;;9.82;6.25;;;;;;;23.13;65.01;101115.13;4942077;29;20050;-80
2023/09/17 06:03:13;;;;;;;9.95;6.60;;;;;;;23.15;65.03;101115.56;4940596;29;20044;-81
2023/09/17 06:06:08;;;;;;;13.38;5.80;;;;;;;23.17;65.21;101106.81;4940919;29;20058;-80
2023/09/17 06:09:02;;;;;;;8.10;5.55;;;;;;;23.17;65.19;101109.59;4939884;29;20052;-80
2023/09/17 06:11:57;;;;;;;15.55;7.15;;;;;;;23.07;65.59;101102.81;4944086;29;20055;-81
2023/09/17 06:14:51;;;;;;;13.98;5.97;;;;;;;23.07;65.78;101091.72;4942282;29;20059;-80
2023/09/17 06:17:46;;;;;;;12.48;7.30;;;;;;;23.05;66.08;101091.34;4938335;29;20051;-80
2023/09/17 06:20:38;;;;;;;8.95;6.63;;;;;;;23.05;66.02;101094.13;4938459;29;20047;-81
2023/09/17 06:23:33;;;;;;;10.63;6.50;;;;;;;23.12;65.86;101094.13;4938202;29;20050;-80
2023/09/17 06:26:27;;;;;;;11.23;6.63;;;;;;;23.19;66.19;101090.59;4937641;29;20039;-81
2023/09/17 06:29:22;;;;;;;10.55;6.82;;;;;;;23.21;66.21;101079.91;4940400;29;20051;-81
2023/09/17 06:32:16;;;;;;;14.02;7.30;;;;;;;23.32;65.28;101080.69;4939245;29;20401;-81
2023/09/17 06:35:11;;;;;;;18.23;9.57;;;;;;;23.43;66.00;101085.09;4942704;29;20047;-80
2023/09/17 06:38:06;;;;;;;15.68;9.30;;;;;;;23.34;66.46;101089.44;4939854;29;20042;-81
2023/09/17 06:41:01;;;;;;;15.27;9.70;;;;;;;23.41;66.33;101095.03;4943873;29;20405;-81
2023/09/17 06:43:55;;;;;;;19.05;12.60;;;;;;;23.23;66.75;101105.25;4942041;29;20051;-80
2023/09/17 06:46:50;;;;;;;16.60;11.93;;;;;;;23.20;66.60;101101.31;4938933;29;20048;-81
2023/09/17 06:49:44;;;;;;;15.13;11.32;;;;;;;23.15;67.32;101104.47;4943289;29;20040;-81
2023/09/17 06:52:39;;;;;;;20.15;14.50;;;;;;;23.08;67.35;101101.66;4940365;29;20043;-81
2023/09/17 06:55:33;;;;;;;18.15;13.30;;;;;;;23.19;67.02;101101.69;4941567;29;20420;-81
2023/09/17 06:58:26;;;;;;;24.10;13.40;;;;;;;23.13;67.27;101106.03;4941209;29;20508;-80
2023/09/17 07:01:20;;;;;;;21.25;12.10;;;;;;;23.18;67.34;101098.13;4939047;29;20048;-80
2023/09/17 07:04:15;;;;;;;17.92;12.13;;;;;;;23.25;66.90;101100.13;4942159;29;20500;-79
2023/09/17 07:07:09;;;;;;;20.83;13.00;;;;;;;23.39;66.68;101103.72;4940512;29;20053;-80
2023/09/17 07:10:01;;;;;;;19.40;11.00;;;;;;;23.48;65.70;101111.72;4942917;29;20047;-81
2023/09/17 07:12:56;;;;;;;20.25;13.90;;;;;;;23.49;65.75;101112.50;4940769;29;20039;-81
2023/09/17 07:15:51;;;;;;;19.95;12.60;;;;;;;23.43;66.55;101115.63;4928222;29;20052;-80
2023/09/17 07:18:46;;;;;;;20.80;15.05;;;;;;;23.41;66.51;101114.44;4938069;29;20035;-80
2023/09/17 07:21:40;;;;;;;22.83;11.27;;;;;;;23.43;65.83;101117.63;4931063;29;20052;-79
2023/09/17 07:24:32;;;;;;;20.50;10.68;;;;;;;23.37;66.17;101114.41;4935882;29;20047;-80
2023/09/17 07:27:27;;;;;;;17.23;9.88;;;;;;;23.45;65.95;101115.28;4941840;29;20039;-80
2023/09/17 07:30:19;;;;;;;36.70;13.77;;;;;;;23.51;66.25;101130.38;4939383;29;20055;-80
2023/09/17 07:33:12;;;;;;;21.20;10.32;;;;;;;23.56;65.83;101127.22;4937378;28;20036;-81
2023/09/17 07:36:04;;;;;;;24.40;12.07;;;;;;;23.60;65.60;101141.88;4937996;29;20047;-80
2023/09/17 07:38:56;;;;;;;18.88;11.45;;;;;;;23.58;65.77;101144.25;4937169;29;20040;-80
2023/09/17 07:41:51;;;;;;;17.42;11.65;;;;;;;23.63;66.27;101143.06;4941480;28;20048;-81
2023/09/17 07:44:43;;;;;;;19.23;14.32;;;;;;;23.67;66.67;101143.91;4938079;29;20047;-79
2023/09/17 07:47:38;;;;;;;23.55;14.02;;;;;;;23.69;66.89;101138.72;4942256;29;20035;-81
2023/09/17 07:50:33;;;;;;;19.48;14.48;;;;;;;23.83;66.87;101133.19;4936789;29;20051;-81
2023/09/17 07:53:23;;;;;;;19.15;13.73;;;;;;;23.91;66.23;101139.56;4932557;29;20043;-79
2023/09/17 07:56:17;;;;;;;19.23;13.35;;;;;;;23.97;66.24;101141.56;4931666;29;20043;-79
2023/09/17 07:59:12;;;;;;;17.95;11.35;;;;;;;24.01;65.56;101144.31;4936665;29;20032;-79
2023/09/17 08:02:06;;;;;;;30.77;13.60;;;;;;;23.98;65.85;101143.13;4939739;29;20059;-80
2023/09/17 08:05:01;;;;;;;18.70;12.32;;;;;;;23.99;66.03;101144.72;4935793;29;20043;-80
2023/09/17 08:07:55;;;;;;;27.23;13.20;;;;;;;24.08;66.20;101150.66;4933215;29;20047;-80
2023/09/17 08:10:47;;;;;;;20.88;13.30;;;;;;;24.00;65.66;101154.66;4935097;29;20440;-80
2023/09/17 08:13:39;;;;;;;20.85;13.05;;;;;;;24.02;66.48;101145.91;4940642;29;20040;-80
2023/09/17 08:16:29;;;;;;;18.27;12.00;;;;;;;23.97;66.01;101154.66;4939524;29;20043;-80
2023/09/17 08:19:24;;;;;;;16.10;12.45;;;;;;;24.01;66.20;101161.00;4934348;29;20421;-81
2023/09/17 08:22:18;;;;;;;15.90;11.77;;;;;;;24.01;65.92;101163.78;4931222;29;20497;-80
2023/09/17 08:25:13;;;;;;;20.20;12.27;;;;;;;24.07;65.68;101167.75;4929053;29;20048;-81
2023/09/17 08:28:08;;;;;;;14.00;11.15;;;;;;;24.14;65.34;101164.97;4932325;29;20044;-80
2023/09/17 08:30:57;;;;;;;15.98;11.25;;;;;;;24.16;65.30;101166.16;4934838;29;20039;-80
2023/09/17 08:33:50;;;;;;;14.75;11.18;;;;;;;24.08;65.41;101166.53;4933031;29;20055;-80
2023/09/17 08:36:44;;;;;;;16.15;12.10;;;;;;;24.20;65.12;101172.53;4931516;29;20044;-80
2023/09/17 08:39:37;;;;;;;18.48;9.85;;;;;;;24.13;65.12;101175.28;4941823;29;20512;-81
2023/09/17 08:42:32;;;;;;;13.90;11.02;;;;;;;24.24;64.61;101170.56;4945269;29;20044;-81
2023/09/17 08:45:23;;;;;;;13.75;10.48;;;;;;;24.17;64.57;101178.13;4941824;29;20043;-80
2023/09/17 08:48:17;;;;;;;17.98;11.10;;;;;;;24.27;64.66;101180.91;4945821;29;20048;-81
2023/09/17 08:51:13;;;;;;;15.95;10.82;;;;;;;24.36;64.90;101180.50;4943300;29;20039;-81
2023/09/17 08:54:14;;;;;;;14.35;10.35;;;;;;;24.47;63.61;101186.03;4940643;29;20432;-81
2023/09/17 08:57:12;;;;;;;14.35;9.40;;;;;;;24.32;64.10;101176.13;4944136;29;20520;-81
2023/09/17 09:00:08;;;;;;;28.80;10.50;;;;;;;24.29;64.37;101169.38;4941789;29;20054;-80
2023/09/17 09:03:03;;;;;;;22.45;8.70;;;;;;;24.25;64.26;101171.34;4945511;29;20040;-80
2023/09/17 09:05:59;;;;;;;15.20;9.00;;;;;;;24.26;64.38;101162.63;4941533;29;20520;-80
2023/09/17 09:08:49;;;;;;;12.60;9.73;;;;;;;24.49;63.54;101164.97;4945313;29;20043;-81
2023/09/17 09:11:45;;;;;;;11.88;8.35;;;;;;;24.31;63.95;101163.41;4943780;29;20050;-81
2023/09/17 09:14:40;;;;;;;15.00;8.43;;;;;;;24.17;64.23;101153.09;4940155;29;20044;-81
2023/09/17 09:17:34;;;;;;;14.82;9.15;;;;;;;24.25;63.82;101158.25;4944925;29;20043;-81
2023/09/17 09:20:26;;;;;;;16.08;10.48;;;;;;;24.53;63.55;101149.06;4942864;29;20039;-80
2023/09/17 09:23:21;;;;;;;16.60;10.70;;;;;;;24.71;62.75;101149.84;4946307;29;20745;-81
2023/09/17 09:26:15;;;;;;;16.35;11.32;;;;;;;24.69;62.88;101154.22;4942121;29;20052;-80
2023/09/17 09:29:08;;;;;;;15.63;9.02;;;;;;;24.59;63.00;101155.81;4934238;29;20039;-79
2023/09/17 09:32:02;;;;;;;19.02;12.75;;;;;;;24.85;62.62;101143.44;4933634;29;20046;-80
2023/09/17 09:34:54;;;;;;;9.32;6.18;;;;;;;24.88;61.20;101134.34;4937011;29;20044;-81
2023/09/17 09:37:50;;;;;;;16.95;9.70;;;;;;;25.23;60.86;101136.19;4936204;29;20062;-82
2023/09/17 09:40:42;;;;;;;10.13;7.32;;;;;;;25.04;60.71;101133.91;4940730;29;20055;-81
2023/09/17 09:43:34;;;;;;;12.75;8.13;;;;;;;24.86;61.41;101138.69;4942876;29;20036;-81
2023/09/17 09:46:28;;;;;;;12.60;8.65;;;;;;;24.69;62.18;101143.09;4923575;29;20406;-81
2023/09/17 09:49:20;;;;;;;11.07;8.45;;;;;;;24.76;61.82;101142.28;4941677;29;20040;-81
2023/09/17 09:52:15;;;;;;;13.10;8.05;;;;;;;24.76;61.81;101140.31;4935317;29;20043;-81
2023/09/17 09:55:12;;;;;;;14.80;10.13;;;;;;;24.77;62.09;101143.88;4939967;29;20069;-80
2023/09/17 09:58:07;;;;;;;15.48;10.38;;;;;;;24.74;63.04;101136.34;4921036;29;20044;-82
2023/09/17 10:00:59;;;;;;;16.23;9.70;;;;;;;24.71;63.02;101135.16;4936671;29;20032;-83
2023/09/17 10:03:58;;;;;;;16.48;9.63;;;;;;;24.56;63.53;101141.94;4941182;29;20051;-83
2023/09/17 10:06:56;;;;;;;15.55;9.25;;;;;;;24.67;63.47;101137.16;4938228;29;20031;-82
2023/09/17 10:09:50;;;;;;;15.50;10.70;;;;;;;24.55;64.20;101137.56;4942095;29;20048;-82
2023/09/17 10:12:42;;;;;;;18.55;12.38;;;;;;;24.56;65.33;101131.59;4936001;29;20044;-82
2023/09/17 10:15:38;;;;;;;19.10;11.23;;;;;;;24.55;65.37;101129.22;4927507;29;20048;-82
2023/09/17 10:18:35;;;;;;;15.20;11.32;;;;;;;24.59;64.59;101130.78;4929041;29;20409;-82
2023/09/17 10:21:31;;;;;;;16.70;10.20;;;;;;;24.54;63.83;101128.41;4918725;29;20048;-82
2023/09/17 10:24:26;;;;;;;15.48;10.65;;;;;;;24.56;63.96;101130.81;4924714;29;20044;-81
2023/09/17 10:27:24;;;;;;;13.82;8.98;;;;;;;24.57;64.04;101124.06;4929422;29;20048;-82
2023/09/17 10:30:21;;;;;;;15.50;10.30;;;;;;;24.79;63.46;101124.81;4929787;29;20807;-81
2023/09/17 10:33:11;;;;;;;16.70;10.60;;;;;;;24.72;63.46;101122.84;4933546;29;20505;-82
2023/09/17 10:36:07;;;;;;;12.52;8.40;;;;;;;24.58;63.31;101120.84;4924963;29;20051;-82
2023/09/17 10:39:00;;;;;;;11.30;8.65;;;;;;;24.83;62.20;101117.25;4932865;29;20047;-82
2023/09/17 10:41:54;;;;;;;10.27;7.95;;;;;;;24.73;63.04;101115.28;4939949;29;20047;-82
2023/09/17 10:44:49;;;;;;;20.80;11.10;;;;;;;24.86;62.05;101120.00;4942443;29;20043;-82
2023/09/17 10:47:44;;;;;;;16.77;8.15;;;;;;;24.67;62.60;101124.03;4933458;29;20040;-82
2023/09/17 10:50:36;;;;;;;13.52;9.18;;;;;;;24.76;62.71;101123.59;4938507;29;20046;-81
2023/09/17 10:53:31;;;;;;;13.90;9.75;;;;;;;24.56;63.79;101112.16;4941689;29;20054;-82
2023/09/17 10:56:25;;;;;;;14.88;9.70;;;;;;;24.68;63.91;101120.06;4939019;29;20050;-83
2023/09/17 10:59:19;;;;;;;14.77;10.20;;;;;;;24.97;62.64;101114.44;4934859;29;20024;-81
2023/09/17 11:02:09;;;;;;;12.10;8.88;;;;;;;24.94;61.61;101107.66;4924976;29;20048;-80
2023/09/17 11:05:04;;;;;;;11.02;7.65;;;;;;;24.63;62.27;101108.56;4921819;29;20036;-81
2023/09/17 11:08:02;;;;;;;17.95;10.32;;;;;;;24.73;62.17;101102.16;4930335;29;20509;-82
2023/09/17 11:10:57;;;;;;;22.20;13.60;;;;;;;24.82;62.38;101110.88;4927394;29;20681;-81
2023/09/17 11:13:51;;;;;;;25.70;15.20;;;;;;;24.88;62.71;101109.31;4929414;29;20497;-81
2023/09/17 11:16:48;;;;;;;25.98;17.70;;;;;;;25.31;62.12;101107.09;4925693;29;20036;-80
2023/09/17 11:19:43;;;;;;;13.98;11.00;;;;;;;24.92;62.46;101110.06;4924317;29;20036;-80
2023/09/17 11:22:39;;;;;;;15.80;11.82;;;;;;;25.05;62.16;101102.84;4928332;29;20398;-80
2023/09/17 11:25:43;;;;;;;22.60;14.02;;;;;;;25.17;60.38;101104.41;4928221;29;20043;-80
2023/09/17 11:28:44;;;;;;;18.23;12.65;;;;;;;25.37;61.18;101102.69;4938949;29;20044;-81
2023/09/17 11:31:36;;;;;;;18.05;10.77;;;;;;;25.12;60.54;101100.06;4941719;29;20055;-80
2023/09/17 11:34:31;;;;;;;23.65;15.32;;;;;;;25.10;62.04;101099.66;4942944;29;20258;-81
2023/09/17 11:37:21;;;;;;;15.60;9.57;;;;;;;25.01;61.54;101092.94;4940396;29;20039;-81
2023/09/17 11:40:15;;;;;;;23.58;16.45;;;;;;;25.04;62.49;101089.38;4938662;29;20051;-80
2023/09/17 11:43:08;;;;;;;28.33;18.70;;;;;;;25.48;61.73;101086.72;4950793;29;20035;-82
2023/09/17 11:46:03;;;;;;;22.00;12.52;;;;;;;25.14;60.98;101086.50;4949736;29;20043;-82
2023/09/17 11:48:55;;;;;;;19.63;13.82;;;;;;;24.92;62.46;101089.81;4942507;29;20040;-81
2023/09/17 11:51:49;;;;;;;16.23;11.32;;;;;;;24.94;62.36;101087.41;4944068;29;20502;-79
2023/09/17 11:54:45;;;;;;;16.75;10.95;;;;;;;24.88;61.92;101081.47;4944249;29;20039;-81
2023/09/17 11:57:35;;;;;;;15.77;10.02;;;;;;;24.80;61.49;101084.66;4953511;29;20043;-81
2023/09/17 12:00:29;;;;;;;;;;;;;;;24.77;61.73;101088.25;4950420;29;20044;-81
2023/09/17 12:03:24;;;;;;;16.58;11.68;;;;;;;24.71;62.10;101080.31;4938442;29;20956;-81
2023/09/17 12:06:18;;;;;;;19.00;10.85;;;;;;;24.73;62.38;101090.25;4936582;29;20036;-81
2023/09/17 12:09:31;;;;;;;14.27;10.50;;;;;;;24.70;62.38;101084.28;4941570;29;20040;-81
2023/09/17 12:12:25;;;;;;;16.10;11.32;;;;;;;24.79;62.41;101085.88;4941776;29;20066;-81
2023/09/17 12:15:20;;;;;;;17.80;12.77;;;;;;;24.90;62.90;101076.28;4943026;29;20044;-80
2023/09/17 12:18:12;;;;;;;;;;;;;;;25.01;61.84;101081.81;4936539;29;20032;-81
2023/09/17 12:21:09;;;;;;;16.10;9.95;;;;;;;24.89;62.52;101074.69;4945144;29;19922;-80
2023/09/17 12:24:04;;;;;;;15.95;10.90;;;;;;;24.98;62.22;101069.50;4944730;29;20051;-81
2023/09/17 12:30:00;;;;;;;11.25;8.52;;;;;;;24.71;61.44;101073.94;4949226;29;20507;-80
2023/09/17 12:32:51;;;;;;;21.27;10.95;;;;;;;24.88;61.98;101064.78;4946350;29;20048;-80
2023/09/17 12:35:46;;;;;;;13.15;9.88;;;;;;;25.18;61.05;101069.00;4933395;29;20039;-80
2023/09/17 12:38:37;;;;;;;17.35;9.18;;;;;;;24.96;61.83;101065.53;4934408;29;20043;-80
2023/09/17 12:41:24;;;;;;;15.80;10.50;;;;;;;25.29;60.42;101050.25;4937571;29;20051;-80
2023/09/17 12:44:19;;;;;;;9.30;6.50;;;;;;;24.95;60.06;101058.38;4944684;29;20047;-80
2023/09/17 12:47:11;;;;;;;13.77;9.85;;;;;;;24.95;61.67;101050.81;4947798;29;20047;-80
2023/09/17 12:50:03;;;;;;;11.38;8.15;;;;;;;24.84;61.70;101052.06;4950931;29;20047;-80
2023/09/17 12:52:58;;;;;;;13.25;8.00;;;;;;;24.71;61.80;101049.72;4951127;29;20039;-80
2023/09/17 12:55:50;;;;;;;13.85;7.78;;;;;;;24.86;61.10;101052.44;4952675;29;20066;-80
2023/09/17 12:58:45;;;;;;;19.70;12.52;;;;;;;24.97;61.77;101053.22;4953314;29;20063;-79
2023/09/17 13:01:37;;;;;;;20.73;14.50;;;;;;;25.46;60.47;101049.31;4951468;29;20040;-80
2023/09/17 13:04:42;;;;;;;19.02;12.70;;;;;;;25.60;60.07;101048.47;4954947;29;20420;-80
2023/09/17 13:07:38;;;;;;;13.02;9.00;;;;;;;25.15;60.39;101056.69;4953160;29;20043;-80
2023/09/17 13:10:33;;;;;;;11.95;7.40;;;;;;;24.92;60.61;101050.84;4955243;29;20048;-80
2023/09/17 13:13:29;;;;;;;9.45;6.97;;;;;;;24.99;60.47;101050.81;4953821;29;20047;-80
2023/09/17 13:16:23;;;;;;;11.23;7.60;;;;;;;24.96;60.92;101051.63;4949873;29;20132;-81
2023/09/17 13:19:16;;;;;;;9.63;7.45;;;;;;;24.97;61.58;101045.66;4953612;29;20055;-80
2023/09/17 13:22:11;;;;;;;14.13;8.40;;;;;;;24.99;60.77;101048.81;4952083;29;20051;-80
2023/09/17 13:25:08;;;;;;;15.60;11.40;;;;;;;25.22;60.15;101045.50;4954512;29;20059;-80